sensor_id;sensor_type;location;lat;lon;timestamp;temperature;humidity
49855;DHT22;35752;52.164;21.244;2022-07-10T00:00:15;13.90;99.90
49855;DHT22;35752;52.164;21.244;2022-07-10T00:02:43;14.00;99.90
49855;DHT22;35752;52.164;21.244;2022-07-10T00:05:10;14.00;99.90
49855;DHT22;35752;52.164;21.244;2022-07-10T00:07:36;14.00;99.90
49855;DHT22;35752;52.164;21.244;2022-07-10T00:10:03;14.00;99.90
49855;DHT22;35752;52.164;21.244;2022-07-10T00:12:29;14.00;99.90
49855;DHT22;35752;52.164;21.244;2022-07-10T00:14:55;14.00;99.90
49855;DHT22;35752;52.164;21.244;2022-07-10T00:17:21;14.00;99.90
49855;DHT22;35752;52.164;21.244;2022-07-10T00:19:46;14.10;99.90
49855;DHT22;35752;52.164;21.244;2022-07-10T00:22:12;14.10;99.90
49855;DHT22;35752;52.164;21.244;2022-07-10T00:24:38;14.10;99.90
49855;DHT22;35752;52.164;21.244;2022-07-10T00:27:04;14.10;99.90
49855;DHT22;35752;52.164;21.244;2022-07-10T00:29:29;14.10;99.90
49855;DHT22;35752;52.164;21.244;2022-07-10T00:31:55;14.10;99.90
49855;DHT22;35752;52.164;21.244;2022-07-10T00:34:21;14.10;99.90
49855;DHT22;35752;52.164;21.244;2022-07-10T00:36:46;14.10;99.90
49855;DHT22;35752;52.164;21.244;2022-07-10T00:39:12;14.10;99.90
49855;DHT22;35752;52.164;21.244;2022-07-10T00:41:38;14.20;99.90
49855;DHT22;35752;52.164;21.244;2022-07-10T00:44:04;14.20;99.90
49855;DHT22;35752;52.164;21.244;2022-07-10T00:46:31;14.10;99.90
49855;DHT22;35752;52.164;21.244;2022-07-10T00:48:57;14.10;99.90
49855;DHT22;35752;52.164;21.244;2022-07-10T00:51:28;14.10;99.90
49855;DHT22;35752;52.164;21.244;2022-07-10T00:53:54;14.10;99.90
49855;DHT22;35752;52.164;21.244;2022-07-10T00:56:23;14.10;99.90
49855;DHT22;35752;52.164;21.244;2022-07-10T00:58:49;14.10;99.90
49855;DHT22;35752;52.164;21.244;2022-07-10T01:01:15;14.00;99.90
49855;DHT22;35752;52.164;21.244;2022-07-10T01:03:42;14.00;99.90
49855;DHT22;35752;52.164;21.244;2022-07-10T01:06:09;13.90;99.90
49855;DHT22;35752;52.164;21.244;2022-07-10T01:08:35;13.90;99.90
49855;DHT22;35752;52.164;21.244;2022-07-10T01:11:01;13.80;99.90
49855;DHT22;35752;52.164;21.244;2022-07-10T01:13:28;13.80;99.90
49855;DHT22;35752;52.164;21.244;2022-07-10T01:15:55;13.70;99.90
49855;DHT22;35752;52.164;21.244;2022-07-10T01:18:21;13.70;99.90
49855;DHT22;35752;52.164;21.244;2022-07-10T01:20:55;13.70;99.90
49855;DHT22;35752;52.164;21.244;2022-07-10T01:23:21;13.60;99.90
49855;DHT22;35752;52.164;21.244;2022-07-10T01:25:48;13.50;99.90
49855;DHT22;35752;52.164;21.244;2022-07-10T01:28:17;13.50;99.90
49855;DHT22;35752;52.164;21.244;2022-07-10T01:30:44;13.50;99.90
49855;DHT22;35752;52.164;21.244;2022-07-10T01:33:10;13.40;99.90
49855;DHT22;35752;52.164;21.244;2022-07-10T01:35:36;13.30;99.90
49855;DHT22;35752;52.164;21.244;2022-07-10T01:38:01;13.30;99.90
49855;DHT22;35752;52.164;21.244;2022-07-10T01:40:27;13.30;99.90
49855;DHT22;35752;52.164;21.244;2022-07-10T01:42:53;13.30;99.90
49855;DHT22;35752;52.164;21.244;2022-07-10T01:45:18;13.20;99.90
49855;DHT22;35752;52.164;21.244;2022-07-10T01:47:44;13.20;99.90
49855;DHT22;35752;52.164;21.244;2022-07-10T01:50:10;13.20;99.90
49855;DHT22;35752;52.164;21.244;2022-07-10T01:52:36;13.20;99.90
49855;DHT22;35752;52.164;21.244;2022-07-10T01:55:03;13.10;99.90
49855;DHT22;35752;52.164;21.244;2022-07-10T01:57:29;13.10;99.90
49855;DHT22;35752;52.164;21.244;2022-07-10T01:59:55;13.10;99.90
49855;DHT22;35752;52.164;21.244;2022-07-10T02:02:21;13.20;99.90
49855;DHT22;35752;52.164;21.244;2022-07-10T02:04:47;13.20;99.90
49855;DHT22;35752;52.164;21.244;2022-07-10T02:07:18;13.10;99.90
49855;DHT22;35752;52.164;21.244;2022-07-10T02:09:44;13.10;99.90
49855;DHT22;35752;52.164;21.244;2022-07-10T02:12:12;13.00;99.90
49855;DHT22;35752;52.164;21.244;2022-07-10T02:14:39;13.00;99.90
49855;DHT22;35752;52.164;21.244;2022-07-10T02:17:06;13.00;99.90
49855;DHT22;35752;52.164;21.244;2022-07-10T02:19:32;13.00;99.90
49855;DHT22;35752;52.164;21.244;2022-07-10T02:21:58;12.90;99.90
49855;DHT22;35752;52.164;21.244;2022-07-10T02:24:25;13.00;99.90
49855;DHT22;35752;52.164;21.244;2022-07-10T02:26:51;13.00;99.90
49855;DHT22;35752;52.164;21.244;2022-07-10T02:29:16;13.00;99.90
49855;DHT22;35752;52.164;21.244;2022-07-10T02:31:43;13.00;99.90
49855;DHT22;35752;52.164;21.244;2022-07-10T02:34:10;13.00;99.90
49855;DHT22;35752;52.164;21.244;2022-07-10T02:36:36;13.10;99.90
49855;DHT22;35752;52.164;21.244;2022-07-10T02:39:04;13.10;99.90
49855;DHT22;35752;52.164;21.244;2022-07-10T02:41:30;13.10;99.90
49855;DHT22;35752;52.164;21.244;2022-07-10T02:43:56;13.10;99.90
49855;DHT22;35752;52.164;21.244;2022-07-10T02:46:21;13.10;99.90
49855;DHT22;35752;52.164;21.244;2022-07-10T02:48:47;13.10;99.90
49855;DHT22;35752;52.164;21.244;2022-07-10T02:51:13;13.20;99.90
49855;DHT22;35752;52.164;21.244;2022-07-10T02:53:38;13.20;99.90
49855;DHT22;35752;52.164;21.244;2022-07-10T02:56:05;13.20;99.90
49855;DHT22;35752;52.164;21.244;2022-07-10T02:58:32;13.20;99.90
49855;DHT22;35752;52.164;21.244;2022-07-10T03:00:58;13.20;99.90
49855;DHT22;35752;52.164;21.244;2022-07-10T03:03:24;13.20;99.90
49855;DHT22;35752;52.164;21.244;2022-07-10T03:05:50;13.20;99.90
49855;DHT22;35752;52.164;21.244;2022-07-10T03:08:16;13.20;99.90
49855;DHT22;35752;52.164;21.244;2022-07-10T03:10:41;13.20;99.90
49855;DHT22;35752;52.164;21.244;2022-07-10T03:13:07;13.20;99.90
49855;DHT22;35752;52.164;21.244;2022-07-10T03:15:33;13.20;99.90
49855;DHT22;35752;52.164;21.244;2022-07-10T03:17:59;13.20;99.90
49855;DHT22;35752;52.164;21.244;2022-07-10T03:20:25;13.30;99.90
49855;DHT22;35752;52.164;21.244;2022-07-10T03:22:50;13.40;99.90
49855;DHT22;35752;52.164;21.244;2022-07-10T03:25:16;13.50;99.90
49855;DHT22;35752;52.164;21.244;2022-07-10T03:27:42;13.60;99.90
49855;DHT22;35752;52.164;21.244;2022-07-10T03:30:08;13.60;99.90
49855;DHT22;35752;52.164;21.244;2022-07-10T03:32:34;13.70;99.90
49855;DHT22;35752;52.164;21.244;2022-07-10T03:35:01;13.70;99.90
49855;DHT22;35752;52.164;21.244;2022-07-10T03:37:27;13.80;99.90
49855;DHT22;35752;52.164;21.244;2022-07-10T03:39:52;13.80;99.90
49855;DHT22;35752;52.164;21.244;2022-07-10T03:42:18;13.80;99.90
49855;DHT22;35752;52.164;21.244;2022-07-10T03:44:44;13.90;99.90
49855;DHT22;35752;52.164;21.244;2022-07-10T03:47:10;13.90;99.90
49855;DHT22;35752;52.164;21.244;2022-07-10T03:49:36;13.90;99.90
49855;DHT22;35752;52.164;21.244;2022-07-10T03:52:04;13.90;99.90
49855;DHT22;35752;52.164;21.244;2022-07-10T03:54:30;13.90;99.90
49855;DHT22;35752;52.164;21.244;2022-07-10T03:56:57;14.00;99.90
49855;DHT22;35752;52.164;21.244;2022-07-10T03:59:41;14.10;99.90
49855;DHT22;35752;52.164;21.244;2022-07-10T04:02:07;14.10;99.90
49855;DHT22;35752;52.164;21.244;2022-07-10T04:04:33;14.30;99.90
49855;DHT22;35752;52.164;21.244;2022-07-10T04:06:59;14.80;99.90
49855;DHT22;35752;52.164;21.244;2022-07-10T04:09:25;15.90;99.90
49855;DHT22;35752;52.164;21.244;2022-07-10T04:11:51;17.20;99.90
49855;DHT22;35752;52.164;21.244;2022-07-10T04:14:16;18.30;99.90
49855;DHT22;35752;52.164;21.244;2022-07-10T04:16:42;19.10;99.90
49855;DHT22;35752;52.164;21.244;2022-07-10T04:19:08;19.00;99.90
49855;DHT22;35752;52.164;21.244;2022-07-10T04:21:34;18.60;99.90
49855;DHT22;35752;52.164;21.244;2022-07-10T04:24:00;18.20;99.90
49855;DHT22;35752;52.164;21.244;2022-07-10T04:26:25;17.80;99.90
49855;DHT22;35752;52.164;21.244;2022-07-10T04:28:51;17.50;99.90
49855;DHT22;35752;52.164;21.244;2022-07-10T04:31:17;17.20;99.90
49855;DHT22;35752;52.164;21.244;2022-07-10T04:33:42;17.40;99.90
49855;DHT22;35752;52.164;21.244;2022-07-10T04:36:08;18.40;99.90
49855;DHT22;35752;52.164;21.244;2022-07-10T04:38:33;18.50;99.90
49855;DHT22;35752;52.164;21.244;2022-07-10T04:40:59;18.30;99.90
49855;DHT22;35752;52.164;21.244;2022-07-10T04:43:25;17.90;99.90
49855;DHT22;35752;52.164;21.244;2022-07-10T04:45:51;17.70;99.90
49855;DHT22;35752;52.164;21.244;2022-07-10T04:48:17;17.20;99.90
49855;DHT22;35752;52.164;21.244;2022-07-10T04:50:42;17.10;99.90
49855;DHT22;35752;52.164;21.244;2022-07-10T04:53:08;17.20;99.90
49855;DHT22;35752;52.164;21.244;2022-07-10T04:55:34;17.50;99.90
49855;DHT22;35752;52.164;21.244;2022-07-10T04:58:00;18.00;99.90
49855;DHT22;35752;52.164;21.244;2022-07-10T05:00:25;18.20;99.90
49855;DHT22;35752;52.164;21.244;2022-07-10T05:02:51;18.00;99.90
49855;DHT22;35752;52.164;21.244;2022-07-10T05:05:17;17.70;99.90
49855;DHT22;35752;52.164;21.244;2022-07-10T05:07:43;17.50;99.90
49855;DHT22;35752;52.164;21.244;2022-07-10T05:10:09;17.30;99.90
49855;DHT22;35752;52.164;21.244;2022-07-10T05:12:34;17.30;99.90
49855;DHT22;35752;52.164;21.244;2022-07-10T05:15:00;17.20;99.90
49855;DHT22;35752;52.164;21.244;2022-07-10T05:17:27;17.20;99.90
49855;DHT22;35752;52.164;21.244;2022-07-10T05:19:57;17.20;99.90
49855;DHT22;35752;52.164;21.244;2022-07-10T05:22:24;17.30;99.90
49855;DHT22;35752;52.164;21.244;2022-07-10T05:24:50;17.20;99.90
49855;DHT22;35752;52.164;21.244;2022-07-10T05:27:15;17.20;99.90
49855;DHT22;35752;52.164;21.244;2022-07-10T05:29:44;17.20;99.90
49855;DHT22;35752;52.164;21.244;2022-07-10T05:32:10;17.30;99.90
49855;DHT22;35752;52.164;21.244;2022-07-10T05:34:36;17.40;99.90
49855;DHT22;35752;52.164;21.244;2022-07-10T05:37:01;17.50;99.90
49855;DHT22;35752;52.164;21.244;2022-07-10T05:39:27;17.70;99.90
49855;DHT22;35752;52.164;21.244;2022-07-10T05:41:53;17.70;99.90
49855;DHT22;35752;52.164;21.244;2022-07-10T05:44:21;17.70;99.90
49855;DHT22;35752;52.164;21.244;2022-07-10T05:46:47;17.80;99.90
49855;DHT22;35752;52.164;21.244;2022-07-10T05:49:13;17.90;99.90
49855;DHT22;35752;52.164;21.244;2022-07-10T05:51:40;18.10;99.90
49855;DHT22;35752;52.164;21.244;2022-07-10T05:54:06;18.10;99.90
49855;DHT22;35752;52.164;21.244;2022-07-10T05:56:32;18.30;99.90
49855;DHT22;35752;52.164;21.244;2022-07-10T05:58:57;18.40;99.90
49855;DHT22;35752;52.164;21.244;2022-07-10T06:01:26;18.50;99.90
49855;DHT22;35752;52.164;21.244;2022-07-10T06:03:53;18.40;99.90
49855;DHT22;35752;52.164;21.244;2022-07-10T06:06:19;18.40;99.90
49855;DHT22;35752;52.164;21.244;2022-07-10T06:08:45;18.40;99.90
49855;DHT22;35752;52.164;21.244;2022-07-10T06:11:12;18.40;99.90
49855;DHT22;35752;52.164;21.244;2022-07-10T06:13:38;18.40;99.90
49855;DHT22;35752;52.164;21.244;2022-07-10T06:16:04;18.40;99.90
49855;DHT22;35752;52.164;21.244;2022-07-10T06:18:31;18.40;99.90
49855;DHT22;35752;52.164;21.244;2022-07-10T06:20:59;18.40;99.90
49855;DHT22;35752;52.164;21.244;2022-07-10T06:23:25;18.40;99.90
49855;DHT22;35752;52.164;21.244;2022-07-10T06:25:51;18.50;99.90
49855;DHT22;35752;52.164;21.244;2022-07-10T06:28:17;18.40;99.90
49855;DHT22;35752;52.164;21.244;2022-07-10T06:30:44;18.30;99.90
49855;DHT22;35752;52.164;21.244;2022-07-10T06:33:11;18.20;99.90
49855;DHT22;35752;52.164;21.244;2022-07-10T06:35:37;18.20;99.90
49855;DHT22;35752;52.164;21.244;2022-07-10T06:38:03;18.10;99.90
49855;DHT22;35752;52.164;21.244;2022-07-10T06:40:29;18.20;99.90
49855;DHT22;35752;52.164;21.244;2022-07-10T06:42:59;18.30;99.90
49855;DHT22;35752;52.164;21.244;2022-07-10T06:45:25;18.30;99.90
49855;DHT22;35752;52.164;21.244;2022-07-10T06:47:51;18.40;99.90
49855;DHT22;35752;52.164;21.244;2022-07-10T06:50:25;18.50;99.90
49855;DHT22;35752;52.164;21.244;2022-07-10T06:52:51;18.40;99.90
49855;DHT22;35752;52.164;21.244;2022-07-10T06:55:20;18.50;99.90
49855;DHT22;35752;52.164;21.244;2022-07-10T06:57:46;18.50;99.90
49855;DHT22;35752;52.164;21.244;2022-07-10T07:00:12;18.40;99.90
49855;DHT22;35752;52.164;21.244;2022-07-10T07:02:38;18.40;99.90
49855;DHT22;35752;52.164;21.244;2022-07-10T07:05:05;18.30;99.90
49855;DHT22;35752;52.164;21.244;2022-07-10T07:07:31;18.40;99.90
49855;DHT22;35752;52.164;21.244;2022-07-10T07:09:57;18.10;99.90
49855;DHT22;35752;52.164;21.244;2022-07-10T07:12:23;18.20;99.90
49855;DHT22;35752;52.164;21.244;2022-07-10T07:14:49;18.30;99.90
49855;DHT22;35752;52.164;21.244;2022-07-10T07:17:15;18.30;99.90
49855;DHT22;35752;52.164;21.244;2022-07-10T07:19:50;18.50;99.90
49855;DHT22;35752;52.164;21.244;2022-07-10T07:22:34;18.60;99.90
49855;DHT22;35752;52.164;21.244;2022-07-10T07:25:18;18.70;99.90
49855;DHT22;35752;52.164;21.244;2022-07-10T07:27:44;19.00;99.90
49855;DHT22;35752;52.164;21.244;2022-07-10T07:30:12;19.10;99.90
49855;DHT22;35752;52.164;21.244;2022-07-10T07:32:45;19.20;99.90
49855;DHT22;35752;52.164;21.244;2022-07-10T07:35:33;18.90;99.90
49855;DHT22;35752;52.164;21.244;2022-07-10T07:37:58;18.90;99.90
49855;DHT22;35752;52.164;21.244;2022-07-10T07:40:26;19.20;99.90
49855;DHT22;35752;52.164;21.244;2022-07-10T07:42:53;19.20;99.90
49855;DHT22;35752;52.164;21.244;2022-07-10T07:45:20;19.10;99.90
49855;DHT22;35752;52.164;21.244;2022-07-10T07:47:47;19.10;99.90
49855;DHT22;35752;52.164;21.244;2022-07-10T07:50:14;19.00;99.90
49855;DHT22;35752;52.164;21.244;2022-07-10T07:52:40;18.80;99.90
49855;DHT22;35752;52.164;21.244;2022-07-10T07:55:07;18.80;99.90
49855;DHT22;35752;52.164;21.244;2022-07-10T07:57:33;18.90;99.90
49855;DHT22;35752;52.164;21.244;2022-07-10T07:59:59;18.90;99.90
49855;DHT22;35752;52.164;21.244;2022-07-10T08:02:24;19.10;99.90
49855;DHT22;35752;52.164;21.244;2022-07-10T08:04:50;18.90;99.90
49855;DHT22;35752;52.164;21.244;2022-07-10T08:07:16;19.00;99.90
49855;DHT22;35752;52.164;21.244;2022-07-10T08:09:42;19.00;99.90
49855;DHT22;35752;52.164;21.244;2022-07-10T08:12:10;19.20;99.90
49855;DHT22;35752;52.164;21.244;2022-07-10T08:14:36;19.50;99.90
49855;DHT22;35752;52.164;21.244;2022-07-10T08:17:01;19.90;99.90
49855;DHT22;35752;52.164;21.244;2022-07-10T08:19:27;20.20;99.90
49855;DHT22;35752;52.164;21.244;2022-07-10T08:21:53;20.50;99.90
49855;DHT22;35752;52.164;21.244;2022-07-10T08:24:18;20.10;99.90
49855;DHT22;35752;52.164;21.244;2022-07-10T08:26:44;20.40;99.90
49855;DHT22;35752;52.164;21.244;2022-07-10T08:29:10;20.30;99.90
49855;DHT22;35752;52.164;21.244;2022-07-10T08:31:36;20.50;99.90
49855;DHT22;35752;52.164;21.244;2022-07-10T08:34:02;20.30;99.90
49855;DHT22;35752;52.164;21.244;2022-07-10T08:36:28;20.40;99.10
49855;DHT22;35752;52.164;21.244;2022-07-10T08:38:54;20.20;99.70
49855;DHT22;35752;52.164;21.244;2022-07-10T08:41:25;20.10;99.90
49855;DHT22;35752;52.164;21.244;2022-07-10T08:43:51;19.90;99.20
49855;DHT22;35752;52.164;21.244;2022-07-10T08:46:17;19.90;99.70
49855;DHT22;35752;52.164;21.244;2022-07-10T08:48:50;19.80;99.20
49855;DHT22;35752;52.164;21.244;2022-07-10T08:51:36;19.80;99.90
49855;DHT22;35752;52.164;21.244;2022-07-10T08:54:05;19.70;99.80
49855;DHT22;35752;52.164;21.244;2022-07-10T08:56:33;19.80;99.70
49855;DHT22;35752;52.164;21.244;2022-07-10T08:59:02;20.20;99.90
49855;DHT22;35752;52.164;21.244;2022-07-10T09:01:28;20.20;99.90
49855;DHT22;35752;52.164;21.244;2022-07-10T09:03:54;20.30;98.00
49855;DHT22;35752;52.164;21.244;2022-07-10T09:06:20;20.30;97.50
49855;DHT22;35752;52.164;21.244;2022-07-10T09:09:06;20.40;98.90
49855;DHT22;35752;52.164;21.244;2022-07-10T09:11:32;20.50;97.90
49855;DHT22;35752;52.164;21.244;2022-07-10T09:14:03;20.50;95.20
49855;DHT22;35752;52.164;21.244;2022-07-10T09:16:34;20.50;94.70
49855;DHT22;35752;52.164;21.244;2022-07-10T09:19:23;20.60;95.10
49855;DHT22;35752;52.164;21.244;2022-07-10T09:22:05;20.50;94.40
49855;DHT22;35752;52.164;21.244;2022-07-10T09:24:39;20.40;96.90
49855;DHT22;35752;52.164;21.244;2022-07-10T09:27:05;20.30;97.10
49855;DHT22;35752;52.164;21.244;2022-07-10T09:29:32;20.30;97.10
49855;DHT22;35752;52.164;21.244;2022-07-10T09:32:04;20.10;97.40
49855;DHT22;35752;52.164;21.244;2022-07-10T09:34:44;19.80;96.10
49855;DHT22;35752;52.164;21.244;2022-07-10T09:39:59;19.60;97.70
49855;DHT22;35752;52.164;21.244;2022-07-10T09:42:34;19.60;99.50
49855;DHT22;35752;52.164;21.244;2022-07-10T09:45:16;19.50;98.40
49855;DHT22;35752;52.164;21.244;2022-07-10T09:50:32;19.90;98.80
49855;DHT22;35752;52.164;21.244;2022-07-10T09:53:07;19.90;97.50
49855;DHT22;35752;52.164;21.244;2022-07-10T09:55:36;20.10;97.40
49855;DHT22;35752;52.164;21.244;2022-07-10T09:58:03;20.50;97.80
49855;DHT22;35752;52.164;21.244;2022-07-10T10:00:31;20.70;96.70
49855;DHT22;35752;52.164;21.244;2022-07-10T10:03:03;20.80;96.50
49855;DHT22;35752;52.164;21.244;2022-07-10T10:05:39;20.60;95.40
49855;DHT22;35752;52.164;21.244;2022-07-10T10:08:17;20.40;93.60
49855;DHT22;35752;52.164;21.244;2022-07-10T10:10:48;20.20;94.50
49855;DHT22;35752;52.164;21.244;2022-07-10T10:13:22;19.80;94.50
49855;DHT22;35752;52.164;21.244;2022-07-10T10:15:50;19.70;95.60
49855;DHT22;35752;52.164;21.244;2022-07-10T10:18:22;19.60;95.70
49855;DHT22;35752;52.164;21.244;2022-07-10T10:20:49;19.60;96.60
49855;DHT22;35752;52.164;21.244;2022-07-10T10:23:17;19.70;97.80
49855;DHT22;35752;52.164;21.244;2022-07-10T10:25:43;19.50;97.60
49855;DHT22;35752;52.164;21.244;2022-07-10T10:28:11;19.40;99.60
49855;DHT22;35752;52.164;21.244;2022-07-10T10:30:39;19.40;99.70
49855;DHT22;35752;52.164;21.244;2022-07-10T10:35:56;19.10;99.90
49855;DHT22;35752;52.164;21.244;2022-07-10T10:38:22;18.90;99.90
49855;DHT22;35752;52.164;21.244;2022-07-10T10:40:48;18.90;99.90
49855;DHT22;35752;52.164;21.244;2022-07-10T10:43:18;18.90;99.90
49855;DHT22;35752;52.164;21.244;2022-07-10T10:45:45;19.00;99.90
49855;DHT22;35752;52.164;21.244;2022-07-10T10:48:13;19.10;99.90
49855;DHT22;35752;52.164;21.244;2022-07-10T10:50:48;19.20;99.90
49855;DHT22;35752;52.164;21.244;2022-07-10T10:58:45;19.40;99.90
49855;DHT22;35752;52.164;21.244;2022-07-10T11:01:29;19.10;99.90
49855;DHT22;35752;52.164;21.244;2022-07-10T11:09:27;19.10;99.90
49855;DHT22;35752;52.164;21.244;2022-07-10T11:12:07;19.20;99.90
49855;DHT22;35752;52.164;21.244;2022-07-10T11:14:49;19.20;99.90
49855;DHT22;35752;52.164;21.244;2022-07-10T11:17:15;19.30;99.90
49855;DHT22;35752;52.164;21.244;2022-07-10T11:19:41;19.30;99.90
49855;DHT22;35752;52.164;21.244;2022-07-10T11:24:45;19.30;99.70
49855;DHT22;35752;52.164;21.244;2022-07-10T11:30:10;19.40;96.80
49855;DHT22;35752;52.164;21.244;2022-07-10T11:32:37;19.30;95.60
49855;DHT22;35752;52.164;21.244;2022-07-10T11:35:11;19.40;98.10
49855;DHT22;35752;52.164;21.244;2022-07-10T11:37:49;19.30;96.50
49855;DHT22;35752;52.164;21.244;2022-07-10T11:40:16;19.30;97.60
49855;DHT22;35752;52.164;21.244;2022-07-10T11:42:55;19.30;97.50
49855;DHT22;35752;52.164;21.244;2022-07-10T11:45:32;19.20;96.30
49855;DHT22;35752;52.164;21.244;2022-07-10T11:47:59;19.10;96.60
49855;DHT22;35752;52.164;21.244;2022-07-10T11:50:26;19.30;98.40
49855;DHT22;35752;52.164;21.244;2022-07-10T11:52:53;19.40;96.70
49855;DHT22;35752;52.164;21.244;2022-07-10T11:55:21;19.40;97.30
49855;DHT22;35752;52.164;21.244;2022-07-10T11:57:48;19.30;96.30
49855;DHT22;35752;52.164;21.244;2022-07-10T12:00:28;19.30;97.80
49855;DHT22;35752;52.164;21.244;2022-07-10T12:02:56;19.20;96.90
49855;DHT22;35752;52.164;21.244;2022-07-10T12:05:38;19.20;96.20
49855;DHT22;35752;52.164;21.244;2022-07-10T12:08:04;19.00;95.90
49855;DHT22;35752;52.164;21.244;2022-07-10T12:10:33;19.10;95.40
49855;DHT22;35752;52.164;21.244;2022-07-10T12:13:09;19.30;97.90
49855;DHT22;35752;52.164;21.244;2022-07-10T12:15:38;19.50;94.90
49855;DHT22;35752;52.164;21.244;2022-07-10T12:18:09;19.60;94.90
49855;DHT22;35752;52.164;21.244;2022-07-10T12:20:35;19.70;94.40
49855;DHT22;35752;52.164;21.244;2022-07-10T12:23:03;19.70;94.00
49855;DHT22;35752;52.164;21.244;2022-07-10T12:25:30;19.80;93.60
49855;DHT22;35752;52.164;21.244;2022-07-10T12:27:56;20.00;91.90
49855;DHT22;35752;52.164;21.244;2022-07-10T12:30:37;20.10;91.90
49855;DHT22;35752;52.164;21.244;2022-07-10T12:33:08;20.20;93.30
49855;DHT22;35752;52.164;21.244;2022-07-10T12:35:46;20.20;94.50
49855;DHT22;35752;52.164;21.244;2022-07-10T12:38:29;20.10;94.60
49855;DHT22;35752;52.164;21.244;2022-07-10T12:41:11;20.20;94.50
49855;DHT22;35752;52.164;21.244;2022-07-10T12:43:38;20.10;93.50
49855;DHT22;35752;52.164;21.244;2022-07-10T12:46:14;20.20;93.00
49855;DHT22;35752;52.164;21.244;2022-07-10T12:51:28;20.40;90.10
49855;DHT22;35752;52.164;21.244;2022-07-10T12:53:54;20.70;88.80
49855;DHT22;35752;52.164;21.244;2022-07-10T12:56:37;20.80;86.10
49855;DHT22;35752;52.164;21.244;2022-07-10T12:59:12;20.70;84.20
49855;DHT22;35752;52.164;21.244;2022-07-10T13:01:45;20.70;87.30
49855;DHT22;35752;52.164;21.244;2022-07-10T13:04:11;20.60;85.80
49855;DHT22;35752;52.164;21.244;2022-07-10T13:06:38;20.60;87.70
49855;DHT22;35752;52.164;21.244;2022-07-10T13:09:21;20.70;87.40
49855;DHT22;35752;52.164;21.244;2022-07-10T13:11:48;20.80;88.70
49855;DHT22;35752;52.164;21.244;2022-07-10T13:14:14;21.00;90.80
49855;DHT22;35752;52.164;21.244;2022-07-10T13:16:40;20.80;90.30
49855;DHT22;35752;52.164;21.244;2022-07-10T13:19:06;20.70;89.10
49855;DHT22;35752;52.164;21.244;2022-07-10T13:21:32;20.60;89.90
49855;DHT22;35752;52.164;21.244;2022-07-10T13:23:58;20.40;90.90
49855;DHT22;35752;52.164;21.244;2022-07-10T13:26:24;20.40;91.70
49855;DHT22;35752;52.164;21.244;2022-07-10T13:28:50;20.20;89.40
49855;DHT22;35752;52.164;21.244;2022-07-10T13:31:15;20.00;91.30
49855;DHT22;35752;52.164;21.244;2022-07-10T13:33:41;19.90;91.60
49855;DHT22;35752;52.164;21.244;2022-07-10T13:36:07;19.80;92.00
49855;DHT22;35752;52.164;21.244;2022-07-10T13:38:34;19.70;93.40
49855;DHT22;35752;52.164;21.244;2022-07-10T13:41:00;19.70;93.00
49855;DHT22;35752;52.164;21.244;2022-07-10T13:43:26;19.80;93.10
49855;DHT22;35752;52.164;21.244;2022-07-10T13:45:57;19.90;92.80
49855;DHT22;35752;52.164;21.244;2022-07-10T13:48:24;20.00;92.50
49855;DHT22;35752;52.164;21.244;2022-07-10T13:50:50;20.10;92.60
49855;DHT22;35752;52.164;21.244;2022-07-10T13:53:19;20.10;93.00
49855;DHT22;35752;52.164;21.244;2022-07-10T13:55:45;20.10;93.50
49855;DHT22;35752;52.164;21.244;2022-07-10T13:58:11;20.00;93.40
49855;DHT22;35752;52.164;21.244;2022-07-10T14:00:38;19.90;93.70
49855;DHT22;35752;52.164;21.244;2022-07-10T14:03:04;19.80;94.30
49855;DHT22;35752;52.164;21.244;2022-07-10T14:05:31;19.50;96.20
49855;DHT22;35752;52.164;21.244;2022-07-10T14:07:58;19.20;96.60
49855;DHT22;35752;52.164;21.244;2022-07-10T14:10:24;19.10;97.30
49855;DHT22;35752;52.164;21.244;2022-07-10T14:12:53;18.90;96.30
49855;DHT22;35752;52.164;21.244;2022-07-10T14:15:20;18.70;97.00
49855;DHT22;35752;52.164;21.244;2022-07-10T14:17:46;18.60;98.40
49855;DHT22;35752;52.164;21.244;2022-07-10T14:20:11;18.60;99.90
49855;DHT22;35752;52.164;21.244;2022-07-10T14:22:38;18.40;99.90
49855;DHT22;35752;52.164;21.244;2022-07-10T14:25:05;18.30;99.90
49855;DHT22;35752;52.164;21.244;2022-07-10T14:27:31;18.30;99.90
49855;DHT22;35752;52.164;21.244;2022-07-10T14:29:58;18.30;99.90
49855;DHT22;35752;52.164;21.244;2022-07-10T14:32:24;18.30;99.90
49855;DHT22;35752;52.164;21.244;2022-07-10T14:34:50;18.30;99.90
49855;DHT22;35752;52.164;21.244;2022-07-10T14:37:16;18.30;99.90
49855;DHT22;35752;52.164;21.244;2022-07-10T14:39:41;18.30;99.90
49855;DHT22;35752;52.164;21.244;2022-07-10T14:42:07;18.40;99.90
49855;DHT22;35752;52.164;21.244;2022-07-10T14:44:34;18.60;99.90
49855;DHT22;35752;52.164;21.244;2022-07-10T14:47:00;18.70;99.90
49855;DHT22;35752;52.164;21.244;2022-07-10T14:49:26;18.80;99.90
49855;DHT22;35752;52.164;21.244;2022-07-10T14:51:51;19.00;99.90
49855;DHT22;35752;52.164;21.244;2022-07-10T14:54:17;19.10;99.90
49855;DHT22;35752;52.164;21.244;2022-07-10T14:56:43;19.10;99.90
49855;DHT22;35752;52.164;21.244;2022-07-10T14:59:10;19.20;99.90
49855;DHT22;35752;52.164;21.244;2022-07-10T15:01:36;19.20;99.90
49855;DHT22;35752;52.164;21.244;2022-07-10T15:04:01;19.40;99.90
49855;DHT22;35752;52.164;21.244;2022-07-10T15:06:27;19.40;99.90
49855;DHT22;35752;52.164;21.244;2022-07-10T15:08:53;19.40;99.90
49855;DHT22;35752;52.164;21.244;2022-07-10T15:11:19;19.30;99.90
49855;DHT22;35752;52.164;21.244;2022-07-10T15:13:50;19.40;99.90
49855;DHT22;35752;52.164;21.244;2022-07-10T15:16:17;19.50;99.90
49855;DHT22;35752;52.164;21.244;2022-07-10T15:18:43;19.60;99.90
49855;DHT22;35752;52.164;21.244;2022-07-10T15:21:09;19.50;99.90
49855;DHT22;35752;52.164;21.244;2022-07-10T15:23:37;19.60;99.90
49855;DHT22;35752;52.164;21.244;2022-07-10T15:26:03;19.50;99.90
49855;DHT22;35752;52.164;21.244;2022-07-10T15:28:30;19.60;99.90
49855;DHT22;35752;52.164;21.244;2022-07-10T15:30:56;19.60;99.90
49855;DHT22;35752;52.164;21.244;2022-07-10T15:33:21;19.50;99.90
49855;DHT22;35752;52.164;21.244;2022-07-10T15:35:47;19.40;99.90
49855;DHT22;35752;52.164;21.244;2022-07-10T15:38:13;19.20;99.90
49855;DHT22;35752;52.164;21.244;2022-07-10T15:40:39;19.10;99.90
49855;DHT22;35752;52.164;21.244;2022-07-10T15:43:05;19.30;99.90
49855;DHT22;35752;52.164;21.244;2022-07-10T15:45:30;19.50;99.90